Time;durP1;ratioP1;P1;durP2;ratioP2;P2;SDS_P1;SDS_P2;PMS_P1;PMS_P2;Temp;Humidity;BMP_temperature;BMP_pressure;BME280_temperature;BME280_humidity;BME280_pressure;Samples;Min_cycle;Max_cycle;Signal;HPM_P1;HPM_P2
2022/04/03 00:01:56;;;;;;;4.38;3.65;;;;;;;;;;5022532;28;20200;-79
2022/04/03 00:04:23;;;;;;;5.55;3.80;;;;;;;;;;5021615;28;20674;-81
2022/04/03 00:06:51;;;;;;;6.00;4.38;;;;;;;;;;5013569;28;20203;-81
2022/04/03 00:09:19;;;;;;;8.27;4.28;;;;;;;;;;5013904;28;20223;-81
2022/04/03 00:11:46;;;;;;;7.07;4.50;;;;;;;;;;5013459;28;20302;-80
2022/04/03 00:14:13;;;;;;;4.43;3.95;;;;;;;;;;5013448;28;20234;-80
2022/04/03 00:16:40;;;;;;;4.40;4.00;;;;;;;;;;5013543;28;20735;-80
2022/04/03 00:19:08;;;;;;;7.45;4.88;;;;;;;;;;5015091;28;20220;-79
2022/04/03 00:21:36;;;;;;;4.93;4.10;;;;;;;;;;5015092;28;20224;-81
2022/04/03 00:24:05;;;;;;;4.75;4.25;;;;;;;;;;5020007;28;20206;-80
2022/04/03 00:26:32;;;;;;;5.20;4.15;;;;;;;;;;5022392;28;20635;-79
2022/04/03 00:28:59;;;;;;;6.47;3.88;;;;;;;;;;5032452;28;20218;-80
2022/04/03 00:31:27;;;;;;;6.30;4.50;;;;;;;;;;5032688;28;20203;-79
2022/04/03 00:33:54;;;;;;;4.45;3.60;;;;;;;;;;5032750;28;20290;-78
2022/04/03 00:36:21;;;;;;;5.90;4.20;;;;;;;;;;5033265;28;20203;-79
2022/04/03 00:38:49;;;;;;;4.88;4.35;;;;;;;;;;5026402;28;20247;-80
2022/04/03 00:41:18;;;;;;;4.50;3.92;;;;;;;;;;5014609;28;20727;-80
2022/04/03 00:43:46;;;;;;;5.72;3.95;;;;;;;;;;5014966;28;20196;-80
2022/04/03 00:46:14;;;;;;;6.57;4.47;;;;;;;;;;5019385;28;20684;-80
2022/04/03 00:48:41;;;;;;;6.93;4.82;;;;;;;;;;5020564;28;20225;-80
2022/04/03 00:51:11;;;;;;;4.50;3.92;;;;;;;;;;5013068;28;20196;-81
2022/04/03 00:53:38;;;;;;;5.68;3.97;;;;;;;;;;5012414;28;20222;-80
2022/04/03 00:56:08;;;;;;;4.50;4.10;;;;;;;;;;5012423;28;20202;-79
2022/04/03 00:58:39;;;;;;;5.60;4.80;;;;;;;;;;5012973;28;20224;-79
2022/04/03 01:01:06;;;;;;;5.38;4.10;;;;;;;;;;4995268;28;20220;-79
2022/04/03 01:03:33;;;;;;;5.13;4.05;;;;;;;;;;5014135;28;20680;-81
2022/04/03 01:06:01;;;;;;;7.35;4.00;;;;;;;;;;5014081;28;20204;-78
2022/04/03 01:08:28;;;;;;;4.05;3.63;;;;;;;;;;5018923;28;20696;-79
2022/04/03 01:10:55;;;;;;;5.28;3.83;;;;;;;;;;5019506;28;20199;-78
2022/04/03 01:13:22;;;;;;;4.82;4.32;;;;;;;;;;5011441;28;20623;-78
2022/04/03 01:15:56;;;;;;;4.65;4.00;;;;;;;;;;5011758;28;20207;-79
2022/04/03 01:18:24;;;;;;;5.55;4.30;;;;;;;;;;4992190;28;20416;-81
2022/04/03 01:20:52;;;;;;;4.60;4.10;;;;;;;;;;5005916;28;20219;-78
2022/04/03 01:23:20;;;;;;;4.75;4.18;;;;;;;;;;4995344;28;20207;-80
2022/04/03 01:25:48;;;;;;;5.90;4.50;;;;;;;;;;5013882;28;20196;-77
2022/04/03 01:28:15;;;;;;;4.60;3.83;;;;;;;;;;5013749;28;20219;-80
2022/04/03 01:30:42;;;;;;;4.35;3.92;;;;;;;;;;5018716;28;20672;-79
2022/04/03 01:33:10;;;;;;;6.05;4.03;;;;;;;;;;5019277;28;20278;-79
2022/04/03 01:35:37;;;;;;;7.57;3.95;;;;;;;;;;5011229;28;20203;-80
2022/04/03 01:38:04;;;;;;;4.90;4.40;;;;;;;;;;5011443;28;20259;-80
2022/04/03 01:40:34;;;;;;;7.65;4.65;;;;;;;;;;5011569;28;20697;-80
2022/04/03 01:43:02;;;;;;;6.43;4.45;;;;;;;;;;5012111;28;20291;-82
2022/04/03 01:45:29;;;;;;;4.93;4.40;;;;;;;;;;5011760;28;20203;-79
2022/04/03 01:47:56;;;;;;;5.45;3.60;;;;;;;;;;5013243;28;20617;-81
2022/04/03 01:50:24;;;;;;;4.90;3.97;;;;;;;;;;5013472;28;20569;-80
2022/04/03 01:52:51;;;;;;;4.95;4.30;;;;;;;;;;5018392;28;20544;-81
2022/04/03 01:55:18;;;;;;;6.07;4.95;;;;;;;;;;5019032;28;20686;-78
2022/04/03 01:57:45;;;;;;;4.63;4.13;;;;;;;;;;4991194;28;20224;-80
2022/04/03 02:00:14;;;;;;;6.10;4.32;;;;;;;;;;4991269;28;20216;-79
2022/04/03 02:02:41;;;;;;;6.20;4.28;;;;;;;;;;4991479;28;20207;-80
2022/04/03 02:05:09;;;;;;;5.60;3.88;;;;;;;;;;4992267;28;20204;-79
2022/04/03 02:07:37;;;;;;;4.22;3.45;;;;;;;;;;4997593;28;20220;-80
2022/04/03 02:10:08;;;;;;;4.60;3.97;;;;;;;;;;5013154;28;20665;-77
2022/04/03 02:12:36;;;;;;;4.45;3.50;;;;;;;;;;5012721;28;20208;-81
2022/04/03 02:15:05;;;;;;;4.88;3.63;;;;;;;;;;5016958;28;20199;-80
2022/04/03 02:17:33;;;;;;;5.63;4.20;;;;;;;;;;5018911;28;20653;-79
2022/04/03 02:20:00;;;;;;;4.47;3.55;;;;;;;;;;4991086;28;20205;-79
2022/04/03 02:22:28;;;;;;;5.18;4.00;;;;;;;;;;4991120;28;20201;-81
2022/04/03 02:24:55;;;;;;;4.35;3.47;;;;;;;;;;4991284;28;20578;-82
2022/04/03 02:27:22;;;;;;;4.78;3.92;;;;;;;;;;4991589;28;20200;-79
2022/04/03 02:29:49;;;;;;;4.50;3.97;;;;;;;;;;4997351;28;20207;-78
2022/04/03 02:32:16;;;;;;;4.97;3.83;;;;;;;;;;5012933;28;20196;-80
2022/04/03 02:34:45;;;;;;;6.78;3.78;;;;;;;;;;5013034;28;20298;-79
2022/04/03 02:37:14;;;;;;;3.80;3.40;;;;;;;;;;5017107;28;20577;-79
2022/04/03 02:39:42;;;;;;;5.35;3.60;;;;;;;;;;5018136;28;20268;-80
2022/04/03 02:42:11;;;;;;;4.85;3.92;;;;;;;;;;5010685;28;20266;-80
2022/04/03 02:44:38;;;;;;;5.10;4.22;;;;;;;;;;5010386;28;20227;-81
2022/04/03 02:47:06;;;;;;;5.75;3.70;;;;;;;;;;5011040;28;20195;-80
2022/04/03 02:49:33;;;;;;;4.50;3.75;;;;;;;;;;5011124;28;20228;-81
2022/04/03 02:52:01;;;;;;;4.78;3.97;;;;;;;;;;5010599;28;20207;-80
2022/04/03 02:54:28;;;;;;;4.25;3.85;;;;;;;;;;5012524;28;20204;-81
2022/04/03 02:56:55;;;;;;;4.82;4.00;;;;;;;;;;5012561;28;20215;-79
2022/04/03 02:59:22;;;;;;;4.20;3.75;;;;;;;;;;5016771;28;20294;-79
2022/04/03 03:01:50;;;;;;;5.18;3.88;;;;;;;;;;5017835;28;20227;-79
2022/04/03 03:04:17;;;;;;;5.40;4.35;;;;;;;;;;5011034;28;20223;-79
2022/04/03 03:06:47;;;;;;;4.70;4.20;;;;;;;;;;5010443;28;20680;-82
2022/04/03 03:09:17;;;;;;;4.95;3.90;;;;;;;;;;4993087;28;20223;-79
2022/04/03 03:11:44;;;;;;;5.45;4.30;;;;;;;;;;5011055;28;20199;-80
2022/04/03 03:14:11;;;;;;;6.60;4.85;;;;;;;;;;5010222;28;20231;-79
2022/04/03 03:16:38;;;;;;;5.45;3.65;;;;;;;;;;5012481;28;20207;-80
2022/04/03 03:19:05;;;;;;;4.82;3.85;;;;;;;;;;5012838;28;20220;-78
2022/04/03 03:21:33;;;;;;;4.50;4.13;;;;;;;;;;5016420;28;20580;-78
2022/04/03 03:24:00;;;;;;;4.85;3.88;;;;;;;;;;5017495;28;20203;-79
2022/04/03 03:26:28;;;;;;;4.30;3.50;;;;;;;;;;5030605;28;20235;-79
2022/04/03 03:28:55;;;;;;;4.00;3.58;;;;;;;;;;5033548;28;20229;-79
2022/04/03 03:31:22;;;;;;;4.10;3.70;;;;;;;;;;5033782;28;20202;-81
2022/04/03 03:33:50;;;;;;;4.05;3.45;;;;;;;;;;5034249;28;20199;-78
2022/04/03 03:36:17;;;;;;;4.90;4.40;;;;;;;;;;5029532;28;20200;-77
2022/04/03 03:38:44;;;;;;;5.30;4.60;;;;;;;;;;5016032;28;20228;-81
2022/04/03 03:41:14;;;;;;;6.25;4.07;;;;;;;;;;4998565;28;20259;-81
2022/04/03 03:43:43;;;;;;;6.07;3.72;;;;;;;;;;5019748;28;20242;-79
2022/04/03 03:46:10;;;;;;;5.78;4.28;;;;;;;;;;5021462;28;20192;-80
2022/04/03 03:48:37;;;;;;;8.48;4.53;;;;;;;;;;5031058;28;20362;-80
2022/04/03 03:51:05;;;;;;;4.18;3.60;;;;;;;;;;5033465;28;20206;-79
2022/04/03 03:53:32;;;;;;;4.50;3.83;;;;;;;;;;5033638;28;20203;-81
2022/04/03 03:56:00;;;;;;;6.60;3.80;;;;;;;;;;5033927;28;20210;-83
2022/04/03 03:58:27;;;;;;;4.13;3.42;;;;;;;;;;5030036;28;20227;-78
2022/04/03 04:00:56;;;;;;;6.57;3.75;;;;;;;;;;5015279;28;20227;-78
2022/04/03 04:03:23;;;;;;;4.35;3.50;;;;;;;;;;5015265;28;20204;-79
2022/04/03 04:05:50;;;;;;;4.38;3.78;;;;;;;;;;5019292;28;20206;-80
2022/04/03 04:08:17;;;;;;;4.30;3.60;;;;;;;;;;5020713;28;20212;-80
2022/04/03 04:10:44;;;;;;;6.13;4.10;;;;;;;;;;5030901;28;20196;-82
2022/04/03 04:13:12;;;;;;;4.90;3.90;;;;;;;;;;5032938;28;20231;-81
2022/04/03 04:15:39;;;;;;;3.78;3.42;;;;;;;;;;5033121;28;20196;-79
2022/04/03 04:18:07;;;;;;;6.85;3.97;;;;;;;;;;5033312;28;20230;-80
2022/04/03 04:20:36;;;;;;;4.53;3.88;;;;;;;;;;5030337;28;20239;-82
2022/04/03 04:23:03;;;;;;;5.07;3.72;;;;;;;;;;5015123;28;20295;-80
2022/04/03 04:25:31;;;;;;;4.10;3.70;;;;;;;;;;5015048;28;20196;-79
2022/04/03 04:28:00;;;;;;;4.35;3.92;;;;;;;;;;5018590;28;20255;-80
2022/04/03 04:30:27;;;;;;;5.55;4.32;;;;;;;;;;5020405;28;20620;-81
2022/04/03 04:32:54;;;;;;;4.40;4.00;;;;;;;;;;5014014;28;20200;-78
2022/04/03 04:35:23;;;;;;;3.90;3.60;;;;;;;;;;5012643;28;20600;-79
2022/04/03 04:37:51;;;;;;;4.00;3.50;;;;;;;;;;5012169;28;20223;-81
2022/04/03 04:40:19;;;;;;;4.80;4.10;;;;;;;;;;5013449;28;20199;-82
2022/04/03 04:42:47;;;;;;;5.18;4.50;;;;;;;;;;5012699;28;20255;-78
2022/04/03 04:45:27;;;;;;;6.22;4.13;;;;;;;;;;5000042;28;20267;-82
2022/04/03 04:47:59;;;;;;;5.03;4.47;;;;;;;;;;5020089;28;20220;-79
2022/04/03 04:50:28;;;;;;;6.32;4.43;;;;;;;;;;5020407;28;20253;-79
2022/04/03 04:52:56;;;;;;;4.75;4.18;;;;;;;;;;5004477;28;20725;-81
2022/04/03 04:55:23;;;;;;;5.07;4.07;;;;;;;;;;5030052;28;20222;-81
2022/04/03 04:57:51;;;;;;;5.65;4.38;;;;;;;;;;5032125;28;20530;-80
2022/04/03 05:00:20;;;;;;;5.07;4.47;;;;;;;;;;5014819;28;20203;-82
2022/04/03 05:02:47;;;;;;;4.38;3.95;;;;;;;;;;5032799;28;20225;-84
2022/04/03 05:05:15;;;;;;;8.52;4.30;;;;;;;;;;5029239;28;20660;-82
2022/04/03 05:07:44;;;;;;;6.63;4.55;;;;;;;;;;5014166;28;20220;-82
2022/04/03 05:10:12;;;;;;;6.20;4.82;;;;;;;;;;5014065;28;20207;-82
2022/04/03 05:12:39;;;;;;;6.18;4.53;;;;;;;;;;5017353;28;20188;-80
2022/04/03 05:15:08;;;;;;;6.65;4.60;;;;;;;;;;5019636;28;20192;-79
2022/04/03 05:17:35;;;;;;;7.22;5.20;;;;;;;;;;5028965;28;20207;-80
2022/04/03 05:20:03;;;;;;;6.78;5.13;;;;;;;;;;5031643;28;20215;-79
2022/04/03 05:22:30;;;;;;;6.18;4.72;;;;;;;;;;5031499;28;20576;-80
2022/04/03 05:24:59;;;;;;;8.38;4.88;;;;;;;;;;5032296;28;20191;-81
2022/04/03 05:27:26;;;;;;;6.00;5.00;;;;;;;;;;5029689;28;20195;-79
2022/04/03 05:29:54;;;;;;;6.50;4.85;;;;;;;;;;5013857;28;20207;-79
2022/04/03 05:32:25;;;;;;;5.25;4.43;;;;;;;;;;5013727;28;20192;-78
2022/04/03 05:34:53;;;;;;;6.05;4.70;;;;;;;;;;5017080;28;20742;-77
2022/04/03 05:37:20;;;;;;;7.43;5.15;;;;;;;;;;5018917;28;20191;-80
2022/04/03 05:39:48;;;;;;;5.05;4.25;;;;;;;;;;5010855;28;20234;-79
2022/04/03 05:42:16;;;;;;;6.10;4.50;;;;;;;;;;5013393;28;20579;-81
2022/04/03 05:44:43;;;;;;;6.30;5.05;;;;;;;;;;5031698;28;20199;-80
2022/04/03 05:47:10;;;;;;;7.30;5.30;;;;;;;;;;5031880;28;20199;-80
2022/04/03 05:49:38;;;;;;;6.47;4.78;;;;;;;;;;5028715;28;20708;-79
2022/04/03 05:52:05;;;;;;;9.50;5.13;;;;;;;;;;5013597;28;20207;-81
2022/04/03 05:54:33;;;;;;;7.07;4.55;;;;;;;;;;5013507;28;20204;-79
2022/04/03 05:57:00;;;;;;;6.85;4.80;;;;;;;;;;5016697;28;20187;-80
2022/04/03 05:59:29;;;;;;;6.75;5.22;;;;;;;;;;5019009;28;20207;-79
2022/04/03 06:01:57;;;;;;;9.38;5.25;;;;;;;;;;5027375;28;20227;-83
2022/04/03 06:04:24;;;;;;;5.35;4.32;;;;;;;;;;5030560;28;20727;-80
2022/04/03 06:06:51;;;;;;;6.22;4.63;;;;;;;;;;5031206;28;20286;-80
2022/04/03 06:09:18;;;;;;;4.90;4.22;;;;;;;;;;5031380;28;20222;-82
2022/04/03 06:11:45;;;;;;;5.90;4.90;;;;;;;;;;5029730;28;20558;-79
2022/04/03 06:14:13;;;;;;;4.90;4.40;;;;;;;;;;5016349;28;20227;-79
2022/04/03 06:16:41;;;;;;;7.18;4.88;;;;;;;;;;5018548;28;20637;-80
2022/04/03 06:19:08;;;;;;;4.90;4.43;;;;;;;;;;5028725;28;20302;-79
2022/04/03 06:21:35;;;;;;;4.93;4.32;;;;;;;;;;5030484;28;20219;-82
2022/04/03 06:24:03;;;;;;;5.75;3.95;;;;;;;;;;5023260;28;20226;-83
2022/04/03 06:26:30;;;;;;;6.32;4.20;;;;;;;;;;5011834;28;20188;-81
2022/04/03 06:28:57;;;;;;;7.55;4.95;;;;;;;;;;5010517;28;20581;-80
2022/04/03 06:31:24;;;;;;;5.30;4.53;;;;;;;;;;5015790;28;20199;-80
2022/04/03 06:33:53;;;;;;;5.10;4.45;;;;;;;;;;5018272;28;20578;-80
2022/04/03 06:36:20;;;;;;;9.07;5.15;;;;;;;;;;5011639;28;20214;-80
2022/04/03 06:38:48;;;;;;;4.75;4.25;;;;;;;;;;5010487;28;20215;-79
2022/04/03 06:41:17;;;;;;;6.60;4.38;;;;;;;;;;5010971;28;20202;-81
2022/04/03 06:43:46;;;;;;;5.03;4.05;;;;;;;;;;4993949;28;20542;-80
2022/04/03 06:46:13;;;;;;;5.38;4.68;;;;;;;;;;4994777;28;20223;-82
2022/04/03 06:48:40;;;;;;;5.43;4.45;;;;;;;;;;5012779;28;20224;-80
2022/04/03 06:51:09;;;;;;;9.73;4.90;;;;;;;;;;5012558;28;20204;-80
2022/04/03 06:53:38;;;;;;;6.30;4.45;;;;;;;;;;5014102;28;20200;-80
2022/04/03 06:56:05;;;;;;;6.40;4.30;;;;;;;;;;5017192;28;20204;-78
2022/04/03 06:58:32;;;;;;;7.75;4.43;;;;;;;;;;5010435;28;20219;-77
2022/04/03 07:00:59;;;;;;;7.28;4.22;;;;;;;;;;5012862;28;20212;-78
2022/04/03 07:03:27;;;;;;;5.43;4.45;;;;;;;;;;5013183;28;20226;-77
2022/04/03 07:05:55;;;;;;;6.40;4.53;;;;;;;;;;5015415;28;20203;-79
2022/04/03 07:08:23;;;;;;;6.85;4.80;;;;;;;;;;5014583;28;20220;-78
2022/04/03 07:10:50;;;;;;;6.03;4.00;;;;;;;;;;5015424;28;20203;-77
2022/04/03 07:13:19;;;;;;;8.23;4.32;;;;;;;;;;5021031;28;20230;-79
2022/04/03 07:15:48;;;;;;;7.47;4.57;;;;;;;;;;5023938;28;20199;-81
2022/04/03 07:18:16;;;;;;;5.32;4.22;;;;;;;;;;5014609;28;20228;-77
2022/04/03 07:20:43;;;;;;;7.47;5.00;;;;;;;;;;5013828;28;20338;-77
2022/04/03 07:23:10;;;;;;;10.93;4.82;;;;;;;;;;5014212;28;20239;-78
2022/04/03 07:25:39;;;;;;;5.75;4.63;;;;;;;;;;5014765;28;20207;-77
2022/04/03 07:28:06;;;;;;;7.53;4.80;;;;;;;;;;5013948;28;20227;-79
2022/04/03 07:30:34;;;;;;;6.63;4.80;;;;;;;;;;5014114;28;20656;-79
2022/04/03 07:33:01;;;;;;;5.68;4.80;;;;;;;;;;5015871;28;20203;-78
2022/04/03 07:35:28;;;;;;;7.10;4.40;;;;;;;;;;5019281;28;20206;-79
2022/04/03 07:37:55;;;;;;;8.55;4.70;;;;;;;;;;5021230;28;20299;-79
2022/04/03 07:40:22;;;;;;;7.13;5.07;;;;;;;;;;5020993;28;20299;-77
2022/04/03 07:42:52;;;;;;;5.07;4.57;;;;;;;;;;5012773;28;20227;-79
2022/04/03 07:45:19;;;;;;;9.50;4.70;;;;;;;;;;5014099;28;20210;-79
2022/04/03 07:47:47;;;;;;;12.18;4.97;;;;;;;;;;4996195;28;20223;-77
2022/04/03 07:50:14;;;;;;;6.95;4.85;;;;;;;;;;5013898;28;20219;-80
2022/04/03 07:52:42;;;;;;;5.70;4.57;;;;;;;;;;5014783;28;20192;-77
2022/04/03 07:55:10;;;;;;;6.30;4.70;;;;;;;;;;5015678;28;20199;-77
2022/04/03 07:57:38;;;;;;;6.95;4.60;;;;;;;;;;5016555;28;20246;-78
2022/04/03 08:00:09;;;;;;;8.80;5.55;;;;;;;;;;5020804;28;20196;-78
2022/04/03 08:02:36;;;;;;;7.22;5.53;;;;;;;;;;4998714;28;20359;-85
2022/04/03 08:05:04;;;;;;;5.63;4.60;;;;;;;;;;4993636;28;20279;-80
2022/04/03 08:07:39;;;;;;;5.30;4.72;;;;;;;;;;5013428;28;20208;-82
2022/04/03 08:10:08;;;;;;;9.80;4.85;;;;;;;;;;4990124;28;20200;-78
2022/04/03 08:12:35;;;;;;;7.10;5.27;;;;;;;;;;4993682;28;20224;-78
2022/04/03 08:15:02;;;;;;;6.68;5.82;;;;;;;;;;4996692;28;20461;-82
2022/04/03 08:17:31;;;;;;;5.40;4.90;;;;;;;;;;5014540;28;20200;-79
2022/04/03 08:19:58;;;;;;;5.80;4.70;;;;;;;;;;5015167;28;20800;-75
2022/04/03 08:22:25;;;;;;;10.07;5.80;;;;;;;;;;5020871;28;20219;-76
2022/04/03 08:24:52;;;;;;;7.23;5.93;;;;;;;;;;5024108;28;20454;-81
2022/04/03 08:27:20;;;;;;;7.33;5.33;;;;;;;;;;5016110;28;20463;-86
2022/04/03 08:29:47;;;;;;;5.80;4.93;;;;;;;;;;4994592;28;20462;-79
2022/04/03 08:32:14;;;;;;;5.47;4.30;;;;;;;;;;5011931;28;20458;-81
2022/04/03 08:34:43;;;;;;;6.03;4.77;;;;;;;;;;5013698;28;20505;-78
2022/04/03 08:37:11;;;;;;;5.87;4.63;;;;;;;;;;5014875;28;20458;-83
2022/04/03 08:39:40;;;;;;;5.30;4.30;;;;;;;;;;5015879;28;20463;-78
2022/04/03 08:42:08;;;;;;;5.90;3.60;;;;;;;;;;5016309;28;20826;-79
2022/04/03 08:44:35;;;;;;;6.90;5.13;;;;;;;;;;5019149;28;20458;-78
2022/04/03 08:47:02;;;;;;;5.37;4.43;;;;;;;;;;5017448;28;20924;-79
2022/04/03 08:49:32;;;;;;;4.70;4.20;;;;;;;;;;5010238;28;20479;-79
2022/04/03 08:52:02;;;;;;;5.37;4.20;;;;;;;;;;5008845;28;20497;-78
2022/04/03 08:54:30;;;;;;;4.20;3.60;;;;;;;;;;5005945;28;20467;-81
2022/04/03 08:56:57;;;;;;;4.23;3.77;;;;;;;;;;5004662;28;20998;-83
2022/04/03 08:59:24;;;;;;;6.77;4.37;;;;;;;;;;5007303;28;20487;-81
2022/04/03 09:01:51;;;;;;;5.03;4.20;;;;;;;;;;5010994;28;20542;-79
2022/04/03 09:04:20;;;;;;;5.50;3.37;;;;;;;;;;5012060;28;20509;-79
2022/04/03 09:06:56;;;;;;;3.83;3.40;;;;;;;;;;5006293;28;20467;-79
2022/04/03 09:09:25;;;;;;;4.90;4.20;;;;;;;;;;5001490;28;20474;-79
2022/04/03 09:12:06;;;;;;;4.50;3.63;;;;;;;;;;4988585;28;20462;-82
2022/04/03 09:14:34;;;;;;;4.30;3.90;;;;;;;;;;4991478;28;20850;-79
2022/04/03 09:17:01;;;;;;;4.50;3.77;;;;;;;;;;5006619;28;20466;-79
2022/04/03 09:19:33;;;;;;;4.67;3.63;;;;;;;;;;5006854;28;20490;-77
2022/04/03 09:22:00;;;;;;;4.13;3.60;;;;;;;;;;5002699;28;20451;-83
2022/04/03 09:24:28;;;;;;;4.10;3.70;;;;;;;;;;5013374;28;20495;-77
2022/04/03 09:27:00;;;;;;;5.20;4.23;;;;;;;;;;5013095;28;20458;-81
2022/04/03 09:29:27;;;;;;;4.80;3.83;;;;;;;;;;4989072;28;21033;-83
2022/04/03 09:31:59;;;;;;;4.80;3.67;;;;;;;;;;5004117;28;20459;-79
2022/04/03 09:34:27;;;;;;;4.00;3.43;;;;;;;;;;4992915;28;20461;-82
2022/04/03 09:36:57;;;;;;;4.20;3.33;;;;;;;;;;5010441;28;20463;-84
2022/04/03 09:39:28;;;;;;;4.73;4.30;;;;;;;;;;5010692;28;20470;-85
2022/04/03 09:41:58;;;;;;;5.30;4.00;;;;;;;;;;5008849;28;20800;-81
2022/04/03 09:44:26;;;;;;;4.80;3.90;;;;;;;;;;5001289;28;20489;-78
2022/04/03 09:47:08;;;;;;;4.03;3.40;;;;;;;;;;5017128;28;20439;-80
2022/04/03 09:49:36;;;;;;;4.37;3.97;;;;;;;;;;5014247;28;20484;-82
2022/04/03 09:52:03;;;;;;;4.40;3.57;;;;;;;;;;5007692;28;20459;-83
2022/04/03 09:54:30;;;;;;;5.20;4.40;;;;;;;;;;5009944;28;20451;-80
2022/04/03 09:57:18;;;;;;;5.63;3.90;;;;;;;;;;5010800;28;20470;-83
2022/04/03 09:59:49;;;;;;;4.70;4.27;;;;;;;;;;5011538;28;20463;-81
2022/04/03 10:02:16;;;;;;;4.70;4.23;;;;;;;;;;5010940;28;20463;-82
2022/04/03 10:04:46;;;;;;;6.23;4.13;;;;;;;;;;5010691;28;20481;-83
2022/04/03 10:07:14;;;;;;;4.93;4.00;;;;;;;;;;5012773;28;20450;-84
2022/04/03 10:09:46;;;;;;;5.07;4.60;;;;;;;;;;5015230;28;20489;-85
2022/04/03 10:12:17;;;;;;;5.60;4.70;;;;;;;;;;5017296;28;20462;-79
2022/04/03 10:14:45;;;;;;;6.55;4.55;;;;;;;;;;5007471;28;20455;-79
2022/04/03 10:17:12;;;;;;;4.13;3.43;;;;;;;;;;5011153;28;20196;-78
2022/04/03 10:19:39;;;;;;;4.47;4.07;;;;;;;;;;5009400;28;20537;-81
2022/04/03 10:22:09;;;;;;;3.90;3.57;;;;;;;;;;4996737;28;20458;-79
2022/04/03 10:24:37;;;;;;;4.90;4.10;;;;;;;;;;5001616;28;20501;-84
2022/04/03 10:27:06;;;;;;;3.93;3.53;;;;;;;;;;5012743;28;20518;-82
2022/04/03 10:29:36;;;;;;;5.17;3.60;;;;;;;;;;5012251;28;20505;-78
2022/04/03 10:32:04;;;;;;;5.67;3.87;;;;;;;;;;5011992;28;20445;-81
2022/04/03 10:34:32;;;;;;;4.30;3.67;;;;;;;;;;5017204;28;20431;-82
2022/04/03 10:36:59;;;;;;;3.90;3.50;;;;;;;;;;4992709;28;20461;-80
2022/04/03 10:39:27;;;;;;;4.67;3.80;;;;;;;;;;4999537;28;20530;-80
2022/04/03 10:42:09;;;;;;;5.73;4.70;;;;;;;;;;5009240;28;20462;-86
2022/04/03 10:44:38;;;;;;;6.10;4.47;;;;;;;;;;4995449;28;20485;-82
2022/04/03 10:47:21;;;;;;;5.10;4.47;;;;;;;;;;5010438;28;20803;-83
2022/04/03 10:49:50;;;;;;;5.00;4.00;;;;;;;;;;4978213;28;20786;-84
2022/04/03 10:52:26;;;;;;;7.07;4.50;;;;;;;;;;4997904;28;20459;-83
2022/04/03 10:54:54;;;;;;;5.60;3.73;;;;;;;;;;5015753;28;20529;-82
2022/04/03 10:57:36;;;;;;;4.73;3.70;;;;;;;;;;4999961;28;20468;-87
2022/04/03 11:00:18;;;;;;;6.07;3.50;;;;;;;;;;4994546;28;20463;-82
2022/04/03 11:02:50;;;;;;;3.90;3.37;;;;;;;;;;5008987;28;20442;-80
2022/04/03 11:05:32;;;;;;;5.57;4.00;;;;;;;;;;5006309;28;20465;-80
2022/04/03 11:08:17;;;;;;;4.50;3.73;;;;;;;;;;4984521;28;20530;-83
2022/04/03 11:10:48;;;;;;;4.53;4.10;;;;;;;;;;5010683;28;20944;-83
2022/04/03 11:13:15;;;;;;;4.50;3.67;;;;;;;;;;4990615;28;20841;-78
2022/04/03 11:15:44;;;;;;;3.30;3.00;;;;;;;;;;5002628;28;20458;-78
2022/04/03 11:21:10;;;;;;;3.20;2.90;;;;;;;;;;5130625;27;20542;-82
2022/04/03 11:23:38;;;;;;;4.40;3.73;;;;;;;;;;5123651;28;20950;-79
2022/04/03 11:26:05;;;;;;;3.70;3.40;;;;;;;;;;5130579;27;20450;-80
2022/04/03 11:28:34;;;;;;;4.57;3.67;;;;;;;;;;5098067;28;20447;-85
2022/04/03 11:31:01;;;;;;;7.17;3.60;;;;;;;;;;5105975;28;20438;-80
2022/04/03 11:33:29;;;;;;;4.30;3.70;;;;;;;;;;5089586;27;20453;-81
2022/04/03 11:36:03;;;;;;;3.43;3.13;;;;;;;;;;5111372;28;20955;-79
2022/04/03 11:38:36;;;;;;;3.60;3.03;;;;;;;;;;5108690;28;20813;-82
2022/04/03 11:41:04;;;;;;;2.93;2.73;;;;;;;;;;5122184;28;20475;-82
2022/04/03 11:43:31;;;;;;;3.43;3.13;;;;;;;;;;5100073;28;20447;-83
2022/04/03 11:45:59;;;;;;;3.20;2.90;;;;;;;;;;5094744;28;20438;-81
2022/04/03 11:48:27;;;;;;;3.33;2.80;;;;;;;;;;5085732;28;20471;-83
2022/04/03 11:51:09;;;;;;;2.83;2.63;;;;;;;;;;5087147;28;20461;-85
2022/04/03 11:53:38;;;;;;;3.77;3.43;;;;;;;;;;5096291;28;21234;-84
2022/04/03 11:56:07;;;;;;;3.07;2.50;;;;;;;;;;5088355;28;20457;-83
2022/04/03 11:58:36;;;;;;;4.27;3.10;;;;;;;;;;5103233;28;20498;-82
2022/04/03 12:01:03;;;;;;;6.47;2.90;;;;;;;;;;5104676;28;20543;-83
2022/04/03 12:03:30;;;;;;;3.17;2.47;;;;;;;;;;5104230;28;20462;-83
2022/04/03 12:06:12;;;;;;;4.00;2.43;;;;;;;;;;5104002;28;20434;-83
2022/04/03 12:08:41;;;;;;;2.63;2.40;;;;;;;;;;5105313;28;20549;-80
2022/04/03 12:11:16;;;;;;;5.53;2.70;;;;;;;;;;5088600;28;20441;-81
2022/04/03 12:13:43;;;;;;;2.90;2.60;;;;;;;;;;5108654;28;20460;-85
2022/04/03 12:16:10;;;;;;;5.77;2.60;;;;;;;;;;5111661;28;21248;-83
2022/04/03 12:18:48;;;;;;;4.80;2.50;;;;;;;;;;5118980;28;20446;-82
2022/04/03 12:21:17;;;;;;;2.33;2.03;;;;;;;;;;5126484;27;20488;-86
2022/04/03 12:24:02;;;;;;;2.60;2.27;;;;;;;;;;5126701;27;20529;-87
2022/04/03 12:26:33;;;;;;;4.30;2.50;;;;;;;;;;5110118;28;20444;-87
2022/04/03 12:29:01;;;;;;;2.50;2.30;;;;;;;;;;5126855;27;20486;-84
2022/04/03 12:31:32;;;;;;;3.00;1.90;;;;;;;;;;5080558;28;20440;-82
2022/04/03 12:34:14;;;;;;;2.70;2.37;;;;;;;;;;5076432;28;20446;-80
2022/04/03 12:36:43;;;;;;;4.00;2.30;;;;;;;;;;5076165;28;20531;-82
2022/04/03 12:39:25;;;;;;;2.70;2.30;;;;;;;;;;5099530;28;20462;-81
2022/04/03 12:41:53;;;;;;;3.90;2.40;;;;;;;;;;5077567;28;20450;-79
2022/04/03 12:44:20;;;;;;;3.23;2.30;;;;;;;;;;5092345;28;20447;-82
2022/04/03 12:46:47;;;;;;;3.10;2.47;;;;;;;;;;5092625;28;20435;-85
2022/04/03 12:49:16;;;;;;;3.30;2.40;;;;;;;;;;5093208;28;20808;-81
2022/04/03 12:51:45;;;;;;;3.00;2.43;;;;;;;;;;5091760;28;20983;-81
2022/04/03 12:54:12;;;;;;;2.20;1.90;;;;;;;;;;5094139;28;20435;-82
2022/04/03 12:59:22;;;;;;;2.23;2.03;;;;;;;;;;5096279;28;20479;-78
2022/04/03 13:01:53;;;;;;;3.30;2.23;;;;;;;;;;5098058;28;20696;-82
2022/04/03 13:04:30;;;;;;;2.77;2.37;;;;;;;;;;5108836;28;20431;-82
2022/04/03 13:06:57;;;;;;;2.03;1.83;;;;;;;;;;5111578;28;20435;-81
2022/04/03 13:09:24;;;;;;;2.70;2.23;;;;;;;;;;5112093;28;20454;-80
2022/04/03 13:11:52;;;;;;;5.30;2.70;;;;;;;;;;5112507;28;20844;-80
2022/04/03 13:14:21;;;;;;;3.00;1.70;;;;;;;;;;5107896;28;20458;-81
2022/04/03 13:16:50;;;;;;;2.17;1.60;;;;;;;;;;5093512;28;20516;-81
2022/04/03 13:19:17;;;;;;;3.10;1.97;;;;;;;;;;5092854;28;20474;-79
2022/04/03 13:21:45;;;;;;;5.60;2.57;;;;;;;;;;5077597;28;20463;-79
2022/04/03 13:24:13;;;;;;;2.73;2.10;;;;;;;;;;5097607;28;22132;-80
2022/04/03 13:26:40;;;;;;;2.13;1.70;;;;;;;;;;5107490;28;20443;-79
2022/04/03 13:29:08;;;;;;;3.00;2.30;;;;;;;;;;5093277;28;20454;-81
2022/04/03 13:31:36;;;;;;;3.03;2.00;;;;;;;;;;5111669;28;20455;-81
2022/04/03 13:34:04;;;;;;;1.73;1.50;;;;;;;;;;5111941;28;20431;-78
2022/04/03 13:36:33;;;;;;;2.00;1.80;;;;;;;;;;5110377;28;20430;-79
2022/04/03 13:39:00;;;;;;;2.60;1.70;;;;;;;;;;5093089;28;20460;-80
2022/04/03 13:41:28;;;;;;;2.50;1.70;;;;;;;;;;5093268;28;20486;-78
2022/04/03 13:43:55;;;;;;;3.90;2.37;;;;;;;;;;5095148;28;20440;-80
2022/04/03 13:46:22;;;;;;;3.10;2.00;;;;;;;;;;5098825;28;20427;-83
2022/04/03 13:48:50;;;;;;;3.50;2.20;;;;;;;;;;5109679;28;20515;-81
2022/04/03 13:51:18;;;;;;;2.97;2.67;;;;;;;;;;5114750;28;20438;-82
2022/04/03 13:53:46;;;;;;;4.70;2.17;;;;;;;;;;5113160;28;20427;-81
2022/04/03 13:56:14;;;;;;;6.57;2.73;;;;;;;;;;5111408;28;20438;-83
2022/04/03 13:58:41;;;;;;;3.80;2.60;;;;;;;;;;5110330;28;20464;-81
2022/04/03 14:01:09;;;;;;;2.70;1.80;;;;;;;;;;5092441;28;20486;-82
2022/04/03 14:03:37;;;;;;;5.93;3.07;;;;;;;;;;5092713;28;20439;-81
2022/04/03 14:06:04;;;;;;;3.70;2.50;;;;;;;;;;5095149;28;20433;-79
2022/04/03 14:08:33;;;;;;;3.00;2.43;;;;;;;;;;5096654;28;20462;-81
2022/04/03 14:11:01;;;;;;;3.53;1.60;;;;;;;;;;5091964;28;20447;-81
2022/04/03 14:13:30;;;;;;;2.80;1.83;;;;;;;;;;5072192;28;20471;-82
2022/04/03 14:15:58;;;;;;;1.53;1.43;;;;;;;;;;5090105;28;20493;-82
2022/04/03 14:18:25;;;;;;;1.93;1.70;;;;;;;;;;5090527;28;20963;-80
2022/04/03 14:20:53;;;;;;;2.37;1.90;;;;;;;;;;5089292;28;20543;-82
2022/04/03 14:23:20;;;;;;;2.10;1.90;;;;;;;;;;5092363;28;20951;-80
2022/04/03 14:25:49;;;;;;;2.23;1.60;;;;;;;;;;5092611;28;20439;-81
2022/04/03 14:28:17;;;;;;;2.87;1.90;;;;;;;;;;5094730;28;20450;-80
2022/04/03 14:30:44;;;;;;;2.30;1.90;;;;;;;;;;5096025;28;20887;-79
2022/04/03 14:33:11;;;;;;;2.17;1.47;;;;;;;;;;5106198;28;20492;-81
2022/04/03 14:35:38;;;;;;;5.80;1.90;;;;;;;;;;5109946;28;20542;-80
2022/04/03 14:38:06;;;;;;;2.13;1.90;;;;;;;;;;5109951;28;20967;-82
2022/04/03 14:40:33;;;;;;;4.87;2.20;;;;;;;;;;5110351;28;20493;-82
2022/04/03 14:43:02;;;;;;;2.50;2.00;;;;;;;;;;5091813;28;21042;-80
2022/04/03 14:45:29;;;;;;;2.13;1.90;;;;;;;;;;5092015;28;20443;-81
2022/04/03 14:47:56;;;;;;;2.70;2.50;;;;;;;;;;5091656;28;20464;-80
2022/04/03 14:50:23;;;;;;;5.17;2.33;;;;;;;;;;5094615;28;20804;-79
2022/04/03 14:52:51;;;;;;;4.20;3.00;;;;;;;;;;5096226;28;20439;-81
2022/04/03 14:55:18;;;;;;;4.03;2.10;;;;;;;;;;5104491;28;20457;-80
2022/04/03 14:57:45;;;;;;;3.60;3.23;;;;;;;;;;5109997;28;20549;-82